Time;durP1;ratioP1;P1;durP2;ratioP2;P2;SDS_P1;SDS_P2;PMS_P1;PMS_P2;Temp;Humidity;BMP_temperature;BMP_pressure;BME280_temperature;BME280_humidity;BME280_pressure;Samples;Min_cycle;Max_cycle;Signal;HPM_P1;HPM_P2
2023/02/16 00:00:25;;;;;;;6.60;2.70;;;;;;;0.54;100.00;100626.27;108206;1270;26700;-69
2023/02/16 00:02:53;;;;;;;5.30;2.10;;;;;;;0.59;100.00;100627.95;107893;1271;25437;-69
2023/02/16 00:05:29;;;;;;;6.00;2.20;;;;;;;0.63;100.00;100626.56;107605;1267;24948;-69
2023/02/16 00:08:01;;;;;;;5.40;2.00;;;;;;;0.61;100.00;100620.38;107684;1269;26171;-69
2023/02/16 00:10:32;;;;;;;6.20;2.40;;;;;;;0.56;100.00;100617.20;107788;1275;25430;-69
2023/02/16 00:15:48;;;;;;;5.70;2.10;;;;;;;0.53;100.00;100616.21;107586;1270;22551;-69
2023/02/16 00:18:18;;;;;;;4.90;2.00;;;;;;;0.53;100.00;100621.23;107644;1269;22549;-69
2023/02/16 00:20:49;;;;;;;5.70;2.10;;;;;;;0.50;100.00;100619.14;107636;1267;22559;-69
2023/02/16 00:23:18;;;;;;;5.80;2.10;;;;;;;0.51;100.00;100618.33;108709;1273;23319;-69
2023/02/16 00:25:46;;;;;;;6.50;2.90;;;;;;;0.52;100.00;100616.61;107999;1270;22765;-69
2023/02/16 00:28:18;;;;;;;7.20;2.60;;;;;;;0.52;100.00;100616.48;107530;1267;22542;-69
2023/02/16 00:30:46;;;;;;;6.60;2.70;;;;;;;0.50;100.00;100616.45;110207;1273;243343;-70
2023/02/16 00:34:39;;;;;;;6.00;2.10;;;;;;;0.51;100.00;100614.61;104369;1313;546754;-69
2023/02/16 00:37:12;;;;;;;7.40;2.70;;;;;;;0.55;100.00;100613.97;109478;1284;22496;-69
2023/02/16 00:39:42;;;;;;;5.60;1.70;;;;;;;0.63;100.00;100615.05;109387;1288;22245;-69
2023/02/16 00:42:19;;;;;;;6.70;2.20;;;;;;;0.63;100.00;100611.56;109516;1281;23169;-69
2023/02/16 00:44:48;;;;;;;5.60;1.80;;;;;;;0.60;100.00;100612.64;109352;1288;22332;-69
2023/02/16 00:47:39;;;;;;;4.80;1.80;;;;;;;0.57;100.00;100610.45;109439;1285;114311;-69
2023/02/16 00:50:25;;;;;;;3.80;1.50;;;;;;;0.58;100.00;100607.02;109665;1285;22340;-69
2023/02/16 00:52:57;;;;;;;5.60;1.70;;;;;;;0.56;100.00;100609.50;109597;1285;23219;-69
2023/02/16 00:55:28;;;;;;;5.70;1.80;;;;;;;0.56;100.00;100606.02;109534;1280;22312;-69
2023/02/16 00:58:15;;;;;;;5.60;1.80;;;;;;;0.56;100.00;100593.09;109653;1283;22461;-69
2023/02/16 01:00:48;;;;;;;6.90;1.80;;;;;;;0.55;100.00;100591.76;109663;1285;22224;-69
2023/02/16 01:03:20;;;;;;;4.60;1.60;;;;;;;0.54;100.00;100591.73;109672;1285;22350;-69
2023/02/16 01:05:48;;;;;;;4.10;1.70;;;;;;;0.53;100.00;100590.57;109478;1280;22395;-69
2023/02/16 01:11:06;;;;;;;7.70;2.30;;;;;;;0.56;100.00;100591.31;109678;1285;23079;-69
2023/02/16 01:13:38;;;;;;;7.40;2.90;;;;;;;0.61;100.00;100585.70;109521;1280;22466;-69
2023/02/16 01:16:18;;;;;;;10.00;3.00;;;;;;;0.68;100.00;100586.30;109437;1285;22203;-69
2023/02/16 01:18:47;;;;;;;9.80;3.10;;;;;;;0.67;100.00;100578.52;109603;1285;22478;-70
2023/02/16 01:21:15;;;;;;;9.30;3.50;;;;;;;0.64;100.00;100576.82;109651;1279;23141;-69
2023/02/16 01:23:44;;;;;;;8.60;3.40;;;;;;;0.62;100.00;100576.38;108039;1279;23945;-68
2023/02/16 01:26:15;;;;;;;11.00;3.40;;;;;;;0.63;100.00;100582.45;106829;1285;24263;-69
2023/02/16 01:28:45;;;;;;;10.50;3.80;;;;;;;0.62;100.00;100580.25;107977;1280;23019;-69
2023/02/16 01:31:16;;;;;;;9.10;3.50;;;;;;;0.60;100.00;100585.97;107390;1280;23992;-68
2023/02/16 01:33:45;;;;;;;10.30;3.60;;;;;;;0.59;100.00;100583.81;106937;1280;25362;-68
2023/02/16 01:36:27;;;;;;;7.20;2.90;;;;;;;0.56;100.00;100587.23;106879;1280;22547;-68
2023/02/16 01:38:55;;;;;;;7.00;3.10;;;;;;;0.52;100.00;100584.47;106926;1280;23294;-68
2023/02/16 01:41:41;;;;;;;7.70;3.10;;;;;;;0.50;100.00;100587.02;106901;1282;25412;-68
2023/02/16 01:44:16;;;;;;;7.30;2.90;;;;;;;0.49;100.00;100586.45;106951;1280;22587;-68
2023/02/16 01:46:51;;;;;;;7.60;2.90;;;;;;;0.54;100.00;100588.15;107392;1264;23019;-69
2023/02/16 01:49:20;;;;;;;8.50;3.30;;;;;;;0.59;100.00;100588.63;106967;1279;22721;-69
2023/02/16 01:51:56;;;;;;;10.20;3.80;;;;;;;0.57;100.00;100592.06;106992;1282;27342;-69
2023/02/16 01:54:27;;;;;;;10.00;3.30;;;;;;;0.57;100.00;100592.81;107050;1279;23230;-69
2023/02/16 01:57:07;;;;;;;10.10;3.10;;;;;;;0.56;100.00;100597.38;106990;1276;23494;-69
2023/02/16 01:59:47;;;;;;;7.50;2.90;;;;;;;0.53;100.00;100597.20;107284;1273;25382;-70
2023/02/16 02:02:21;;;;;;;6.90;3.00;;;;;;;0.50;100.00;100600.24;107336;1279;25343;-69
2023/02/16 02:07:43;;;;;;;7.20;2.80;;;;;;;0.47;100.00;100598.11;107661;1270;22557;-69
2023/02/16 02:10:50;;;;;;;8.50;3.40;;;;;;;0.44;100.00;100596.51;107447;1273;23338;-69
2023/02/16 02:13:30;;;;;;;10.20;2.80;;;;;;;0.43;100.00;100599.80;107749;1270;25349;-70
2023/02/16 02:15:59;;;;;;;7.80;3.30;;;;;;;0.49;100.00;100595.05;107715;1270;23385;-69
2023/02/16 02:18:27;;;;;;;6.30;3.00;;;;;;;0.52;100.00;100597.36;107577;1267;23401;-69
2023/02/16 02:24:29;;;;;;;9.00;3.40;;;;;;;0.44;100.00;100595.77;107567;1271;25307;-69
2023/02/16 02:27:09;;;;;;;8.40;3.60;;;;;;;0.42;100.00;100595.71;107749;1270;22523;-69
2023/02/16 02:29:43;;;;;;;7.80;3.50;;;;;;;0.43;100.00;100600.60;107566;1269;25249;-69
2023/02/16 02:32:24;;;;;;;8.50;3.70;;;;;;;0.39;100.00;100600.10;107611;1270;23860;-69
2023/02/16 02:35:11;;;;;;;8.00;3.90;;;;;;;0.34;100.00;100602.89;110271;1269;22332;-70
2023/02/16 02:37:51;;;;;;;8.10;3.30;;;;;;;0.32;100.00;100601.62;110239;1273;22427;-70
2023/02/16 02:40:22;;;;;;;7.70;3.40;;;;;;;0.36;100.00;100599.95;110211;1270;23208;-70
2023/02/16 02:43:24;;;;;;;8.20;3.50;;;;;;;0.40;100.00;100601.81;110274;1274;22406;-70
2023/02/16 02:46:00;;;;;;;8.80;3.50;;;;;;;0.38;100.00;100605.13;107512;1270;25356;-69
2023/02/16 02:48:32;;;;;;;10.60;3.80;;;;;;;0.34;100.00;100600.98;107736;1270;22590;-69
2023/02/16 02:51:29;;;;;;;9.10;3.90;;;;;;;0.33;100.00;100598.88;107762;1270;23364;-69
2023/02/16 03:02:50;;;;;;;6.90;3.20;;;;;;;0.36;100.00;100600.52;107646;1271;26339;-69
2023/02/16 03:05:19;;;;;;;7.80;3.10;;;;;;;0.41;100.00;100599.31;110276;1274;22284;-70
2023/02/16 03:07:51;;;;;;;9.30;3.80;;;;;;;0.48;100.00;100597.23;110208;1270;22443;-70
2023/02/16 03:13:16;;;;;;;8.00;3.20;;;;;;;0.45;100.00;100596.60;110253;1272;22931;-70
2023/02/16 03:15:46;;;;;;;10.90;4.40;;;;;;;0.39;100.00;100601.02;110411;1268;22457;-70
2023/02/16 03:29:23;;;;;;;9.60;4.10;;;;;;;0.36;100.00;100595.20;110369;1271;23227;-70
2023/02/16 03:31:52;;;;;;;9.80;4.10;;;;;;;0.44;100.00;100597.08;110246;1270;22344;-70
2023/02/16 03:34:20;;;;;;;9.60;4.00;;;;;;;0.53;100.00;100592.63;110283;1272;22841;-70
2023/02/16 03:36:52;;;;;;;10.50;4.50;;;;;;;0.61;100.00;100587.65;110356;1270;22350;-70
2023/02/16 03:39:22;;;;;;;10.50;4.80;;;;;;;0.64;100.00;100589.77;110193;1275;22342;-69
2023/02/16 03:41:51;;;;;;;8.60;4.00;;;;;;;0.63;100.00;100585.84;110287;1272;22234;-70
2023/02/16 03:44:19;;;;;;;9.30;4.50;;;;;;;0.62;100.00;100581.28;110159;1272;23143;-70
2023/02/16 03:46:50;;;;;;;9.60;3.90;;;;;;;0.62;100.00;100569.46;110284;1270;22373;-70
2023/02/16 03:49:19;;;;;;;9.30;4.20;;;;;;;0.62;100.00;100575.09;110401;1269;22463;-70
2023/02/16 03:51:47;;;;;;;10.60;4.00;;;;;;;0.58;100.00;100572.86;110374;1271;22333;-69
2023/02/16 03:54:16;;;;;;;11.10;4.60;;;;;;;0.53;100.00;100577.95;110346;1273;22316;-69
2023/02/16 03:56:44;;;;;;;10.40;4.00;;;;;;;0.51;100.00;100579.71;110371;1269;22462;-69
2023/02/16 03:59:12;;;;;;;9.40;4.10;;;;;;;0.55;100.00;100579.06;110386;1269;23102;-69
2023/02/16 04:01:40;;;;;;;7.50;3.20;;;;;;;0.61;100.00;100577.12;110408;1270;22190;-69
2023/02/16 04:04:08;;;;;;;10.30;3.80;;;;;;;0.66;100.00;100573.42;110369;1269;23439;-68
2023/02/16 04:06:37;;;;;;;9.50;3.70;;;;;;;0.67;100.00;100565.52;110360;1269;22414;-69
2023/02/16 04:09:06;;;;;;;7.80;4.00;;;;;;;0.67;100.00;100566.14;110326;1275;22978;-69
2023/02/16 04:14:21;;;;;;;9.10;3.40;;;;;;;0.65;100.00;100561.29;110340;1269;22332;-69
2023/02/16 04:16:54;;;;;;;8.00;3.50;;;;;;;0.65;100.00;100555.93;110311;1270;22385;-68
2023/02/16 04:19:23;;;;;;;6.90;3.40;;;;;;;0.72;100.00;100554.03;110408;1271;22450;-68
2023/02/16 04:21:52;;;;;;;6.70;3.20;;;;;;;0.77;100.00;100552.65;110328;1275;23062;-69
2023/02/16 04:24:22;;;;;;;9.60;3.40;;;;;;;0.76;100.00;100549.85;110158;1267;22289;-69
2023/02/16 04:26:50;;;;;;;9.90;4.20;;;;;;;0.76;100.00;100546.90;108888;1270;23398;-68
2023/02/16 04:29:19;;;;;;;10.90;4.00;;;;;;;0.76;100.00;100551.12;107673;1274;26703;-68
2023/02/16 04:31:48;;;;;;;10.90;4.40;;;;;;;0.76;100.00;100546.37;107697;1274;26681;-68
2023/02/16 04:34:17;;;;;;;14.10;4.60;;;;;;;0.74;100.00;100545.73;107678;1267;26757;-68
2023/02/16 04:36:46;;;;;;;9.70;4.00;;;;;;;0.68;100.00;100542.32;107594;1269;25371;-69
2023/02/16 04:39:15;;;;;;;10.90;4.90;;;;;;;0.67;100.00;100545.31;107509;1268;22953;-68
2023/02/16 04:41:43;;;;;;;14.30;5.10;;;;;;;0.65;100.00;100541.66;107531;1271;23521;-68
2023/02/16 04:44:11;;;;;;;11.70;5.30;;;;;;;0.62;100.00;100543.61;107620;1269;22625;-68
2023/02/16 04:46:42;;;;;;;10.30;4.80;;;;;;;0.52;100.00;100541.40;107736;1274;26631;-68
2023/02/16 04:49:12;;;;;;;8.90;4.60;;;;;;;0.41;100.00;100537.08;107726;1269;23323;-68
2023/02/16 04:51:41;;;;;;;9.70;4.20;;;;;;;0.27;100.00;100533.90;107768;1271;22537;-68
2023/02/16 04:54:09;;;;;;;8.50;4.20;;;;;;;0.18;100.00;100534.55;107597;1274;26751;-69
2023/02/16 04:56:38;;;;;;;9.90;3.80;;;;;;;0.17;100.00;100537.72;110264;1269;23031;-69
2023/02/16 04:59:07;;;;;;;9.20;4.30;;;;;;;0.13;100.00;100539.95;108623;1271;23769;-69
2023/02/16 05:01:36;;;;;;;10.90;3.90;;;;;;;0.05;100.00;100539.49;110374;1273;23116;-69
2023/02/16 05:04:09;;;;;;;10.90;4.10;;;;;;;-0.04;100.00;100540.88;110344;1270;22439;-69
2023/02/16 05:06:38;;;;;;;7.80;3.70;;;;;;;-0.06;100.00;100542.04;110351;1271;22784;-69
2023/02/16 05:09:07;;;;;;;11.10;4.20;;;;;;;-0.08;100.00;100541.73;110349;1269;23090;-69
2023/02/16 05:14:40;;;;;;;9.70;4.40;;;;;;;-0.18;100.00;100538.69;110375;1269;22330;-69
2023/02/16 05:17:16;;;;;;;8.40;3.80;;;;;;;-0.24;100.00;100542.51;110308;1274;22281;-69
2023/02/16 05:19:53;;;;;;;9.50;3.60;;;;;;;-0.29;100.00;100541.29;110300;1273;22274;-71
2023/02/16 05:22:21;;;;;;;8.90;3.40;;;;;;;-0.26;100.00;100540.05;110247;1267;22365;-70
2023/02/16 05:24:49;;;;;;;7.30;3.40;;;;;;;-0.19;100.00;100533.18;110354;1270;22301;-69
2023/02/16 05:27:20;;;;;;;7.90;3.30;;;;;;;-0.14;100.00;100531.42;110335;1270;22492;-70
2023/02/16 05:29:48;;;;;;;7.50;3.60;;;;;;;-0.17;100.00;100535.61;110318;1273;23196;-69
2023/02/16 05:32:16;;;;;;;7.20;3.60;;;;;;;-0.23;100.00;100537.67;110337;1269;22524;-70
2023/02/16 05:34:45;;;;;;;8.00;4.00;;;;;;;-0.28;100.00;100539.36;110315;1275;22267;-70
2023/02/16 05:37:16;;;;;;;8.90;4.40;;;;;;;-0.30;100.00;100536.21;110384;1275;22238;-69
2023/02/16 05:39:44;;;;;;;12.70;4.80;;;;;;;-0.23;100.00;100530.46;110385;1276;22338;-70
2023/02/16 05:42:16;;;;;;;8.10;3.90;;;;;;;-0.15;100.00;100533.56;110408;1269;23429;-69
2023/02/16 05:44:48;;;;;;;8.60;3.90;;;;;;;-0.08;100.00;100539.98;110414;1274;22345;-70
2023/02/16 05:47:17;;;;;;;7.80;3.70;;;;;;;-0.05;100.00;100536.05;110418;1276;22215;-69
2023/02/16 05:49:47;;;;;;;8.50;4.30;;;;;;;-0.05;100.00;100536.61;110310;1269;22398;-68
2023/02/16 05:52:17;;;;;;;9.60;4.40;;;;;;;-0.06;100.00;100536.52;110309;1269;22460;-70
2023/02/16 05:54:48;;;;;;;10.00;4.50;;;;;;;-0.07;100.00;100540.27;110127;1273;22373;-69
2023/02/16 05:57:23;;;;;;;9.90;4.60;;;;;;;-0.02;100.00;100541.23;110338;1261;22776;-69
2023/02/16 05:59:52;;;;;;;10.40;5.10;;;;;;;0.05;100.00;100541.36;110378;1270;22206;-70
2023/02/16 06:02:22;;;;;;;13.40;5.90;;;;;;;0.09;100.00;100542.60;110160;1270;22332;-70
2023/02/16 06:04:51;;;;;;;12.20;6.30;;;;;;;0.10;100.00;100541.85;110239;1270;22165;-70
2023/02/16 06:07:20;;;;;;;14.40;6.60;;;;;;;0.09;100.00;100544.77;110304;1269;22303;-68
2023/02/16 06:09:48;;;;;;;15.30;6.70;;;;;;;0.08;100.00;100546.48;110321;1270;23404;-69
2023/02/16 06:12:16;;;;;;;13.90;7.00;;;;;;;0.05;100.00;100544.34;110292;1269;23257;-69
2023/02/16 06:14:44;;;;;;;13.00;6.60;;;;;;;0.05;100.00;100545.45;110367;1270;22199;-68
2023/02/16 06:17:12;;;;;;;12.00;6.40;;;;;;;0.13;100.00;100546.75;110329;1269;22483;-69
2023/02/16 06:19:40;;;;;;;11.30;5.50;;;;;;;0.20;100.00;100544.30;110325;1269;22397;-69
2023/02/16 06:22:09;;;;;;;9.80;5.40;;;;;;;0.25;100.00;100542.77;110338;1272;22442;-70
2023/02/16 06:24:37;;;;;;;10.90;6.00;;;;;;;0.26;100.00;100543.71;110344;1270;22281;-70
2023/02/16 06:27:05;;;;;;;12.90;6.70;;;;;;;0.25;100.00;100543.55;110302;1269;23063;-69
2023/02/16 06:29:34;;;;;;;12.30;6.20;;;;;;;0.26;100.00;100544.92;108731;1269;22534;-68
2023/02/16 06:32:02;;;;;;;11.60;5.30;;;;;;;0.29;100.00;100544.07;107520;1272;24292;-69
2023/02/16 06:34:30;;;;;;;9.90;4.40;;;;;;;0.35;100.00;100542.03;108321;1274;25405;-68
2023/02/16 06:36:59;;;;;;;9.10;4.40;;;;;;;0.43;100.00;100543.55;107607;1274;25322;-68
2023/02/16 06:39:27;;;;;;;7.40;3.80;;;;;;;0.50;100.00;100541.69;107648;1269;22551;-68
2023/02/16 06:41:56;;;;;;;7.50;3.90;;;;;;;0.49;100.00;100539.59;107704;1274;22523;-68
2023/02/16 06:44:29;;;;;;;9.30;4.30;;;;;;;0.49;100.00;100540.04;107660;1274;25347;-68
2023/02/16 06:46:57;;;;;;;9.20;4.30;;;;;;;0.45;100.00;100536.92;107966;1274;23784;-68
2023/02/16 06:49:26;;;;;;;9.90;4.90;;;;;;;0.42;100.00;100537.06;107609;1274;22567;-70
2023/02/16 06:51:55;;;;;;;9.50;4.50;;;;;;;0.47;100.00;100530.20;107663;1274;27805;-68
2023/02/16 06:54:23;;;;;;;11.20;4.90;;;;;;;0.55;100.00;100528.19;108729;1274;26093;-68
2023/02/16 06:56:51;;;;;;;9.50;4.70;;;;;;;0.55;100.00;100524.94;107616;1276;22516;-68
2023/02/16 06:59:19;;;;;;;9.00;4.50;;;;;;;0.53;100.00;100524.92;107725;1270;26692;-68
2023/02/16 07:01:48;;;;;;;9.30;4.70;;;;;;;0.52;100.00;100519.50;107660;1269;23283;-68
2023/02/16 07:04:16;;;;;;;10.10;5.00;;;;;;;0.52;100.00;100521.60;107875;1270;26663;-68
2023/02/16 07:06:45;;;;;;;9.00;4.70;;;;;;;0.56;100.00;100523.30;107798;1273;25347;-68
2023/02/16 07:09:13;;;;;;;12.00;4.40;;;;;;;0.63;100.00;100521.69;107533;1276;24286;-68
2023/02/16 07:11:42;;;;;;;10.40;5.00;;;;;;;0.75;100.00;100521.45;107525;1275;25427;-69
2023/02/16 07:14:12;;;;;;;10.20;5.20;;;;;;;0.81;100.00;100514.06;107378;1275;24052;-68
2023/02/16 07:16:41;;;;;;;12.30;5.20;;;;;;;0.80;100.00;100513.34;107588;1273;23949;-69
2023/02/16 07:19:09;;;;;;;11.20;5.40;;;;;;;0.81;100.00;100507.63;107482;1272;24125;-69
2023/02/16 07:21:38;;;;;;;11.00;4.70;;;;;;;0.85;100.00;100506.89;107435;1275;26082;-69
2023/02/16 07:24:07;;;;;;;9.50;5.10;;;;;;;0.89;100.00;100504.70;107501;1275;25351;-69
2023/02/16 07:26:37;;;;;;;9.20;5.50;;;;;;;0.95;100.00;100500.88;108227;1274;23295;-71
2023/02/16 07:29:05;;;;;;;11.60;5.10;;;;;;;1.03;100.00;100498.20;107525;1269;24361;-70
2023/02/16 07:31:34;;;;;;;14.90;7.40;;;;;;;1.13;100.00;100496.23;107887;1273;24409;-70
2023/02/16 07:34:03;;;;;;;10.30;5.70;;;;;;;1.25;100.00;100489.32;107447;1272;24286;-70
2023/02/16 07:36:31;;;;;;;13.20;5.70;;;;;;;1.31;100.00;100490.45;107618;1270;26184;-70
2023/02/16 07:38:59;;;;;;;10.60;5.70;;;;;;;1.34;100.00;100488.05;107344;1272;23582;-71
2023/02/16 07:41:28;;;;;;;10.60;5.80;;;;;;;1.38;100.00;100482.55;107666;1273;25421;-70
2023/02/16 07:43:56;;;;;;;11.00;5.60;;;;;;;1.44;100.00;100486.97;109184;1270;25352;-71
2023/02/16 07:46:24;;;;;;;12.90;6.40;;;;;;;1.45;100.00;100482.33;107467;1270;22533;-70
2023/02/16 07:48:53;;;;;;;10.00;5.30;;;;;;;1.45;100.00;100475.13;107291;1272;22763;-69
2023/02/16 07:51:26;;;;;;;10.90;5.80;;;;;;;1.48;100.00;100472.44;107481;1277;22534;-69
2023/02/16 07:53:55;;;;;;;11.70;6.30;;;;;;;1.45;100.00;100471.71;107643;1276;24218;-69
2023/02/16 07:56:27;;;;;;;11.80;6.40;;;;;;;1.45;100.00;100470.55;107733;1276;25532;-69
2023/02/16 07:59:06;;;;;;;11.70;6.00;;;;;;;1.47;100.00;100469.77;107472;1276;24265;-69
2023/02/16 08:01:42;;;;;;;11.80;5.80;;;;;;;1.50;100.00;100462.91;107427;1272;25458;-69
2023/02/16 08:04:21;;;;;;;10.80;6.10;;;;;;;1.52;100.00;100459.08;107508;1275;23066;-69
2023/02/16 08:07:02;;;;;;;9.30;5.30;;;;;;;1.61;100.00;100460.39;107488;1272;25784;-69
2023/02/16 08:09:35;;;;;;;11.80;5.70;;;;;;;1.75;100.00;100458.12;107538;1270;23753;-70
2023/02/16 08:12:11;;;;;;;10.80;5.60;;;;;;;1.87;100.00;100456.71;107592;1270;25294;-69
2023/02/16 08:14:45;;;;;;;11.30;5.30;;;;;;;1.99;100.00;100457.30;107747;1272;25312;-69
2023/02/16 08:17:19;;;;;;;9.90;5.00;;;;;;;2.05;100.00;100454.24;107654;1270;22618;-69
2023/02/16 08:19:52;;;;;;;9.00;4.70;;;;;;;2.07;100.00;100452.64;107538;1275;22697;-69
2023/02/16 08:22:20;;;;;;;10.50;4.60;;;;;;;2.14;100.00;100450.89;107590;1276;26516;-69
2023/02/16 08:24:58;;;;;;;9.60;3.90;;;;;;;2.25;100.00;100449.24;107578;1273;26522;-69
2023/02/16 08:27:27;;;;;;;11.40;5.10;;;;;;;2.35;100.00;100445.48;107577;1276;24062;-69
2023/02/16 08:29:57;;;;;;;12.00;4.40;;;;;;;2.48;100.00;100445.73;107552;1276;24296;-69
2023/02/16 08:32:31;;;;;;;7.40;3.80;;;;;;;2.57;100.00;100442.58;107447;1272;22564;-69
2023/02/16 08:35:17;;;;;;;8.00;3.60;;;;;;;2.62;100.00;100441.11;107594;1269;23026;-68
2023/02/16 08:37:46;;;;;;;9.60;4.70;;;;;;;2.63;100.00;100435.36;107768;1269;22528;-69
2023/02/16 08:40:15;;;;;;;12.40;5.80;;;;;;;2.68;100.00;100440.05;107754;1270;24215;-69
2023/02/16 08:42:45;;;;;;;7.30;4.20;;;;;;;2.72;100.00;100432.35;107392;1275;22608;-69
2023/02/16 08:45:14;;;;;;;8.60;3.60;;;;;;;2.80;100.00;100433.95;109769;1275;22417;-69
2023/02/16 08:47:44;;;;;;;9.80;5.10;;;;;;;2.91;100.00;100429.83;109891;1276;24594;-69
2023/02/16 08:50:15;;;;;;;8.80;3.70;;;;;;;3.06;100.00;100431.70;110339;1270;23132;-70
2023/02/16 08:52:44;;;;;;;7.90;3.80;;;;;;;3.14;100.00;100429.67;110359;1273;23356;-69
2023/02/16 08:55:17;;;;;;;8.00;3.60;;;;;;;3.14;100.00;100427.02;110405;1275;22842;-69
2023/02/16 08:57:46;;;;;;;6.20;3.60;;;;;;;3.16;100.00;100434.05;110430;1276;22264;-69
2023/02/16 09:00:33;;;;;;;7.50;4.00;;;;;;;3.25;100.00;100431.12;110416;1273;23462;-70
2023/02/16 09:03:04;;;;;;;9.60;3.60;;;;;;;3.39;100.00;100428.38;110394;1271;22682;-69
2023/02/16 09:05:32;;;;;;;6.60;3.60;;;;;;;3.43;100.00;100429.13;110259;1269;23180;-69
2023/02/16 09:08:02;;;;;;;7.20;4.20;;;;;;;3.48;100.00;100424.86;110389;1272;22437;-69
2023/02/16 09:10:30;;;;;;;10.00;4.10;;;;;;;3.51;100.00;100421.73;110391;1273;22234;-69
2023/02/16 09:13:04;;;;;;;11.40;4.20;;;;;;;3.55;100.00;100419.66;110294;1275;22430;-69
2023/02/16 09:15:33;;;;;;;9.90;5.00;;;;;;;3.60;100.00;100414.64;110429;1273;22213;-69
2023/02/16 09:18:02;;;;;;;15.80;9.10;;;;;;;3.66;100.00;100413.02;110403;1270;22453;-69
2023/02/16 09:20:32;;;;;;;13.50;7.70;;;;;;;3.69;100.00;100411.77;110397;1276;22414;-70
2023/02/16 09:23:00;;;;;;;8.30;4.10;;;;;;;3.73;100.00;100408.31;110411;1274;22217;-69
2023/02/16 09:25:28;;;;;;;10.50;6.20;;;;;;;3.84;100.00;100403.02;110393;1274;22207;-69
2023/02/16 09:28:26;;;;;;;11.20;5.30;;;;;;;3.84;100.00;100398.42;110361;1270;22279;-69
2023/02/16 09:31:12;;;;;;;14.30;7.50;;;;;;;3.81;100.00;100392.80;110373;1275;22444;-69
2023/02/16 09:33:45;;;;;;;10.90;5.50;;;;;;;3.80;100.00;100389.95;110368;1275;22842;-69
2023/02/16 09:36:17;;;;;;;18.30;9.30;;;;;;;3.79;100.00;100386.76;110419;1271;22404;-69
2023/02/16 09:39:05;;;;;;;10.00;5.30;;;;;;;3.76;100.00;100387.51;110202;1275;22171;-69
2023/02/16 09:41:47;;;;;;;9.00;4.50;;;;;;;3.74;100.00;100382.64;110399;1269;22303;-69
2023/02/16 09:44:26;;;;;;;9.00;4.20;;;;;;;3.74;100.00;100384.61;110372;1272;22287;-69
2023/02/16 09:47:21;;;;;;;7.20;4.10;;;;;;;3.76;100.00;100384.73;108836;1276;26262;-69
2023/02/16 09:50:02;;;;;;;8.90;5.30;;;;;;;3.73;100.00;100382.34;107498;1272;23576;-69
2023/02/16 09:53:16;;;;;;;17.10;9.30;;;;;;;3.68;100.00;100376.60;107660;1275;26528;-69
2023/02/16 09:56:05;;;;;;;9.30;4.80;;;;;;;3.67;100.00;100372.59;107669;1275;23325;-68
2023/02/16 09:58:49;;;;;;;17.20;8.60;;;;;;;3.61;100.00;100370.45;107757;1275;25372;-68
2023/02/16 10:01:33;;;;;;;12.60;5.90;;;;;;;3.59;100.00;100367.67;107686;1270;23558;-68
2023/02/16 10:04:30;;;;;;;12.10;4.30;;;;;;;3.61;100.00;100362.54;107857;1270;22581;-68
2023/02/16 10:07:27;;;;;;;11.30;5.10;;;;;;;3.72;100.00;100364.48;107744;1269;22576;-68
2023/02/16 10:09:56;;;;;;;19.00;9.00;;;;;;;3.66;100.00;100362.60;110401;1269;23067;-69
2023/02/16 10:12:26;;;;;;;11.60;6.30;;;;;;;3.67;100.00;100361.20;110288;1274;23247;-69
2023/02/16 10:14:58;;;;;;;11.70;6.60;;;;;;;3.76;100.00;100363.94;110344;1274;22214;-69
2023/02/16 10:17:51;;;;;;;9.90;5.20;;;;;;;3.81;100.00;100360.60;109792;1274;22965;-69
2023/02/16 10:20:38;;;;;;;8.00;3.90;;;;;;;3.86;100.00;100354.63;107635;1276;22545;-69
2023/02/16 10:23:39;;;;;;;11.30;4.70;;;;;;;3.86;100.00;100350.65;107601;1271;23405;-68
2023/02/16 10:26:32;;;;;;;8.50;4.10;;;;;;;3.83;100.00;100350.36;107476;1275;25202;-69
2023/02/16 10:29:15;;;;;;;8.90;4.80;;;;;;;3.77;100.00;100346.73;107239;1273;23107;-68
2023/02/16 10:32:07;;;;;;;10.80;5.50;;;;;;;3.72;100.00;100342.33;107507;1273;22978;-69
2023/02/16 10:34:40;;;;;;;11.10;5.90;;;;;;;3.72;100.00;100336.77;107631;1274;22747;-69
2023/02/16 10:37:38;;;;;;;13.80;7.80;;;;;;;3.72;100.00;100334.92;107813;1274;25406;-69
2023/02/16 10:40:32;;;;;;;18.20;10.00;;;;;;;3.72;100.00;100331.31;107608;1275;25596;-69
2023/02/16 10:43:19;;;;;;;10.60;5.70;;;;;;;3.72;100.00;100326.13;107773;1252;22553;-69
2023/02/16 10:45:57;;;;;;;9.60;4.60;;;;;;;3.74;100.00;100322.73;107671;1273;22568;-69
2023/02/16 10:48:26;;;;;;;16.90;9.30;;;;;;;3.74;100.00;100320.73;107633;1275;22586;-69
2023/02/16 10:51:11;;;;;;;12.80;6.80;;;;;;;3.75;100.00;100315.72;107612;1274;26531;-69
2023/02/16 10:53:47;;;;;;;11.80;6.90;;;;;;;3.78;100.00;100312.97;107653;1276;23374;-71
2023/02/16 10:56:21;;;;;;;7.60;4.50;;;;;;;3.84;100.00;100311.94;107703;1270;27423;-72
2023/02/16 10:58:50;;;;;;;9.70;4.00;;;;;;;3.93;100.00;100307.39;107756;1271;25329;-72
2023/02/16 11:01:19;;;;;;;7.50;4.60;;;;;;;4.01;100.00;100311.29;110211;1275;22971;-72
2023/02/16 11:03:49;;;;;;;8.20;4.90;;;;;;;4.11;100.00;100307.99;110286;1270;22348;-72
2023/02/16 11:06:24;;;;;;;10.10;5.90;;;;;;;4.20;100.00;100303.02;110061;1274;22372;-73
2023/02/16 11:08:56;;;;;;;11.30;5.70;;;;;;;4.26;100.00;100300.20;110276;1275;22260;-72
2023/02/16 11:11:30;;;;;;;15.00;8.30;;;;;;;4.31;100.00;100298.59;110416;1274;22441;-73
2023/02/16 11:14:18;;;;;;;14.20;8.50;;;;;;;4.33;100.00;100292.45;108902;1272;25092;-72
2023/02/16 11:16:46;;;;;;;15.10;7.70;;;;;;;4.33;100.00;100295.00;107469;1276;25340;-72
2023/02/16 11:19:21;;;;;;;10.40;5.50;;;;;;;4.35;100.00;100289.06;110193;1272;23203;-74
2023/02/16 11:21:50;;;;;;;10.70;6.50;;;;;;;4.36;100.00;100282.84;110119;1268;22293;-73
2023/02/16 11:24:25;;;;;;;10.40;5.40;;;;;;;4.38;100.00;100282.70;110253;1274;22394;-69
2023/02/16 11:27:04;;;;;;;13.40;7.30;;;;;;;4.40;100.00;100269.20;110287;1270;22454;-70
2023/02/16 11:29:33;;;;;;;11.90;6.00;;;;;;;4.45;100.00;100261.88;110289;1270;22283;-72
2023/02/16 11:32:09;;;;;;;9.30;5.30;;;;;;;4.49;100.00;100252.79;110337;1269;22289;-72
2023/02/16 11:34:53;;;;;;;9.20;4.70;;;;;;;4.54;100.00;100245.75;109317;1272;25313;-71
2023/02/16 11:37:30;;;;;;;11.90;5.10;;;;;;;4.56;100.00;100238.72;107623;1270;24250;-71
2023/02/16 11:40:08;;;;;;;8.90;4.20;;;;;;;4.65;100.00;100234.08;107783;1267;23090;-72
2023/02/16 11:42:45;;;;;;;10.50;5.10;;;;;;;4.78;100.00;100231.17;109619;1275;23020;-72
2023/02/16 11:45:26;;;;;;;10.50;5.20;;;;;;;4.91;100.00;100223.36;110419;1276;22428;-73
2023/02/16 11:48:19;;;;;;;8.30;4.80;;;;;;;5.07;100.00;100221.38;110294;1276;22419;-71
2023/02/16 11:50:55;;;;;;;7.50;4.10;;;;;;;5.19;100.00;100220.38;110263;1269;23079;-72
2023/02/16 11:53:26;;;;;;;8.70;4.70;;;;;;;5.22;100.00;100212.70;110342;1269;22412;-72
2023/02/16 11:56:17;;;;;;;7.90;4.30;;;;;;;5.27;100.00;100206.86;110392;1269;22206;-72
2023/02/16 11:59:05;;;;;;;9.90;4.60;;;;;;;5.34;100.00;100201.99;110255;1276;22328;-72
2023/02/16 12:01:44;;;;;;;9.50;5.00;;;;;;;5.39;100.00;100193.77;110457;1276;22187;-72
2023/02/16 12:04:25;;;;;;;9.00;5.00;;;;;;;5.41;100.00;100186.75;110396;1276;22343;-72
2023/02/16 12:07:14;;;;;;;9.40;4.80;;;;;;;5.46;100.00;100180.46;110180;1275;22212;-71
2023/02/16 12:09:55;;;;;;;9.20;4.60;;;;;;;5.45;100.00;100173.59;110193;1275;22892;-71
2023/02/16 12:12:30;;;;;;;8.90;4.60;;;;;;;5.45;100.00;100168.49;110307;1276;22309;-71
2023/02/16 12:15:30;;;;;;;8.30;4.30;;;;;;;5.43;100.00;100171.36;110421;1276;22206;-72
2023/02/16 12:18:05;;;;;;;9.10;4.70;;;;;;;5.39;100.00;100163.67;110100;1276;22223;-72
2023/02/16 12:20:54;;;;;;;8.30;4.00;;;;;;;5.35;100.00;100163.73;110465;1274;22356;-72
2023/02/16 12:23:44;;;;;;;7.80;4.20;;;;;;;5.29;100.00;100161.70;110387;1275;22258;-72
2023/02/16 12:26:20;;;;;;;8.00;4.60;;;;;;;5.27;100.00;100160.36;110185;1276;22268;-72